CheckWX is a tool to help pilots better visualize weather data.  It is not intended as a substitute for an official pre-flight weather briefing.

13:47:52 UTC

BGBW TAF
Narsarsuaq Airport
Narsarsuaq, Greenland
TAF BGBW 151114Z 1512/1516 VRB06KT 9999 FEW030

Sep-15@
12:00 UTC

Sep-15 @ 12:00 UTC

Sep-15@
16:00 UTC

Sep-15 @ 16:00 UTC

TAF BGBW 151114Z 1512/1516 VRB06KT 9999 FEW030
Wind
  • Variable at 6 KTS
Cloud Levels
  • Few at 3,000' AGL